Time;durP1;ratioP1;P1;durP2;ratioP2;P2;SDS_P1;SDS_P2;PMS_P1;PMS_P2;Temp;Humidity;BMP_temperature;BMP_pressure;BME280_temperature;BME280_humidity;BME280_pressure;Samples;Min_cycle;Max_cycle;Signal;HPM_P1;HPM_P2
2022/07/24 00:00:58;;;;;;;1.77;1.50;;;;;;;;;;5094250;27;93527;-62
2022/07/24 00:03:26;;;;;;;2.40;1.88;;;;;;;;;;5096765;27;92622;-63
2022/07/24 00:05:55;;;;;;;1.88;1.70;;;;;;;;;;5084217;27;94101;-63
2022/07/24 00:08:21;;;;;;;1.80;1.70;;;;;;;;;;5074660;27;96185;-63
2022/07/24 00:10:47;;;;;;;1.90;1.77;;;;;;;;;;5076253;27;92731;-63
2022/07/24 00:13:14;;;;;;;4.25;1.85;;;;;;;;;;5077106;27;94574;-63
2022/07/24 00:15:40;;;;;;;2.00;1.75;;;;;;;;;;5076275;27;93436;-63
2022/07/24 00:18:06;;;;;;;2.22;2.00;;;;;;;;;;5076186;27;92552;-63
2022/07/24 00:20:33;;;;;;;2.00;1.90;;;;;;;;;;5079374;27;94142;-63
2022/07/24 00:22:59;;;;;;;1.90;1.80;;;;;;;;;;5077022;27;92365;-63
2022/07/24 00:25:25;;;;;;;2.10;2.00;;;;;;;;;;5077520;27;94384;-63
2022/07/24 00:27:52;;;;;;;2.10;2.00;;;;;;;;;;5075816;27;93525;-63
2022/07/24 00:30:18;;;;;;;2.90;2.25;;;;;;;;;;5076458;27;92306;-63
2022/07/24 00:32:44;;;;;;;2.75;2.03;;;;;;;;;;5075334;27;94847;-62
2022/07/24 00:35:12;;;;;;;2.00;1.90;;;;;;;;;;5076425;27;93781;-62
2022/07/24 00:37:39;;;;;;;2.30;2.10;;;;;;;;;;5075837;27;92437;-63
2022/07/24 00:40:05;;;;;;;1.80;1.70;;;;;;;;;;5076124;27;93325;-62
2022/07/24 00:42:32;;;;;;;1.85;1.75;;;;;;;;;;5079473;27;94242;-63
2022/07/24 00:44:58;;;;;;;2.75;2.05;;;;;;;;;;5058292;27;92996;-63
2022/07/24 00:47:25;;;;;;;1.85;1.75;;;;;;;;;;5075807;27;93431;-63
2022/07/24 00:49:51;;;;;;;2.17;1.90;;;;;;;;;;5076221;27;91976;-63
2022/07/24 00:52:18;;;;;;;2.03;1.92;;;;;;;;;;5075739;27;92405;-62
2022/07/24 00:54:44;;;;;;;1.80;1.70;;;;;;;;;;5075493;27;93269;-63
2022/07/24 00:57:11;;;;;;;1.92;1.83;;;;;;;;;;5073985;27;94994;-63
2022/07/24 00:59:37;;;;;;;2.50;2.30;;;;;;;;;;5075655;27;94290;-63
2022/07/24 01:02:03;;;;;;;1.90;1.80;;;;;;;;;;5075353;27;93942;-63
2022/07/24 01:04:30;;;;;;;1.85;1.75;;;;;;;;;;5078604;27;92511;-62
2022/07/24 01:06:56;;;;;;;2.00;1.90;;;;;;;;;;5075574;27;93432;-63
2022/07/24 01:09:23;;;;;;;2.30;1.92;;;;;;;;;;5075452;27;92385;-63
2022/07/24 01:11:51;;;;;;;3.28;2.08;;;;;;;;;;5075489;27;93083;-63
2022/07/24 01:14:17;;;;;;;2.05;1.95;;;;;;;;;;5058242;27;92670;-63
2022/07/24 01:16:44;;;;;;;2.28;2.08;;;;;;;;;;5075912;27;93169;-62
2022/07/24 01:19:11;;;;;;;1.90;1.80;;;;;;;;;;5075559;27;93377;-62
2022/07/24 01:21:37;;;;;;;3.28;1.80;;;;;;;;;;5073595;27;95493;-63
2022/07/24 01:24:04;;;;;;;2.05;1.95;;;;;;;;;;5075355;27;92502;-63
2022/07/24 01:26:30;;;;;;;1.90;1.80;;;;;;;;;;5078276;27;93273;-63
2022/07/24 01:28:57;;;;;;;2.00;1.90;;;;;;;;;;5075427;27;92434;-63
2022/07/24 01:31:23;;;;;;;2.08;1.98;;;;;;;;;;5074721;27;93112;-63
2022/07/24 01:33:49;;;;;;;2.13;1.88;;;;;;;;;;5075937;27;93483;-63
2022/07/24 01:36:16;;;;;;;2.00;1.90;;;;;;;;;;5074980;27;92401;-63
2022/07/24 01:38:42;;;;;;;2.80;2.05;;;;;;;;;;5075152;27;93460;-63
2022/07/24 01:41:08;;;;;;;2.70;1.90;;;;;;;;;;5074795;27;93457;-63
2022/07/24 01:43:35;;;;;;;3.72;1.77;;;;;;;;;;5075066;27;92721;-63
2022/07/24 01:46:01;;;;;;;3.08;1.77;;;;;;;;;;5073795;27;94791;-63
2022/07/24 01:48:27;;;;;;;2.03;1.85;;;;;;;;;;5059633;27;93906;-63
2022/07/24 01:50:54;;;;;;;1.88;1.77;;;;;;;;;;5074955;27;93434;-63
2022/07/24 01:53:20;;;;;;;1.92;1.80;;;;;;;;;;5074703;27;93525;-63
2022/07/24 01:55:49;;;;;;;1.75;1.65;;;;;;;;;;5074972;27;92390;-63
2022/07/24 01:58:15;;;;;;;1.75;1.65;;;;;;;;;;5075526;27;94503;-62
2022/07/24 02:00:43;;;;;;;2.30;1.90;;;;;;;;;;5074350;27;93691;-63
2022/07/24 02:03:09;;;;;;;1.77;1.67;;;;;;;;;;5075053;27;91725;-62
2022/07/24 02:05:36;;;;;;;1.90;1.70;;;;;;;;;;5074940;27;92321;-63
2022/07/24 02:08:02;;;;;;;1.85;1.75;;;;;;;;;;5074393;27;93535;-62
2022/07/24 02:10:28;;;;;;;1.90;1.80;;;;;;;;;;5076804;27;94855;-63
2022/07/24 02:12:55;;;;;;;2.00;1.80;;;;;;;;;;5074728;27;93004;-63
2022/07/24 02:15:24;;;;;;;2.08;1.90;;;;;;;;;;5075111;27;93064;-63
2022/07/24 02:17:51;;;;;;;1.80;1.70;;;;;;;;;;5074742;27;93338;-62
2022/07/24 02:20:18;;;;;;;1.95;1.85;;;;;;;;;;5056945;27;94472;-63
2022/07/24 02:22:44;;;;;;;2.08;1.88;;;;;;;;;;5074575;27;92423;-63
2022/07/24 02:25:11;;;;;;;1.88;1.67;;;;;;;;;;5075115;27;94375;-62
2022/07/24 02:27:37;;;;;;;1.90;1.80;;;;;;;;;;5075995;27;93741;-63
2022/07/24 02:30:05;;;;;;;2.03;1.92;;;;;;;;;;5081014;27;92365;-63
2022/07/24 02:32:31;;;;;;;1.88;1.75;;;;;;;;;;5077932;27;93356;-63
2022/07/24 02:34:57;;;;;;;2.65;1.90;;;;;;;;;;5076968;27;94821;-63
2022/07/24 02:37:31;;;;;;;2.03;1.92;;;;;;;;;;5060181;27;95547;-63
2022/07/24 02:39:58;;;;;;;1.90;1.80;;;;;;;;;;5077764;27;93725;-63
2022/07/24 02:42:24;;;;;;;2.78;1.83;;;;;;;;;;5077860;27;93748;-63
2022/07/24 02:44:50;;;;;;;1.85;1.75;;;;;;;;;;5078765;27;93006;-63
2022/07/24 02:47:16;;;;;;;1.95;1.85;;;;;;;;;;5077664;27;93805;-63
2022/07/24 02:49:43;;;;;;;3.17;1.75;;;;;;;;;;5078232;27;92410;-63
2022/07/24 02:52:09;;;;;;;3.58;1.70;;;;;;;;;;5081378;27;93195;-63
2022/07/24 02:54:35;;;;;;;2.92;2.08;;;;;;;;;;5077646;27;92353;-63
2022/07/24 02:57:02;;;;;;;1.70;1.58;;;;;;;;;;5077451;27;93286;-63
2022/07/24 02:59:28;;;;;;;1.85;1.75;;;;;;;;;;5075368;27;95830;-63
2022/07/24 03:01:54;;;;;;;2.38;1.80;;;;;;;;;;5077629;27;92447;-63
2022/07/24 03:04:20;;;;;;;2.22;1.80;;;;;;;;;;5077196;27;93516;-63
2022/07/24 03:06:47;;;;;;;1.52;1.42;;;;;;;;;;5077709;27;93286;-62
2022/07/24 03:09:13;;;;;;;2.28;1.80;;;;;;;;;;5077188;27;92451;-63
2022/07/24 03:11:39;;;;;;;2.05;1.85;;;;;;;;;;5077619;27;93267;-63
2022/07/24 03:14:06;;;;;;;1.98;1.80;;;;;;;;;;5080296;27;93285;-63
2022/07/24 03:16:32;;;;;;;2.00;1.90;;;;;;;;;;5078033;27;93175;-63
2022/07/24 03:19:04;;;;;;;1.77;1.67;;;;;;;;;;5059631;27;93984;-63
2022/07/24 03:21:31;;;;;;;1.85;1.75;;;;;;;;;;5077313;27;92461;-63
2022/07/24 03:24:13;;;;;;;1.92;1.83;;;;;;;;;;5076108;27;94727;-63
2022/07/24 03:26:40;;;;;;;1.85;1.70;;;;;;;;;;5077195;27;93349;-62
2022/07/24 03:29:06;;;;;;;1.95;1.83;;;;;;;;;;5076968;27;92819;-63
2022/07/24 03:31:33;;;;;;;2.13;1.92;;;;;;;;;;5077165;27;92994;-63
2022/07/24 03:34:00;;;;;;;3.28;1.80;;;;;;;;;;5077795;27;97615;-63
2022/07/24 03:36:26;;;;;;;1.90;1.80;;;;;;;;;;5080502;27;92404;-62
2022/07/24 03:38:52;;;;;;;1.92;1.73;;;;;;;;;;5075070;27;93931;-63
2022/07/24 03:41:18;;;;;;;2.03;1.80;;;;;;;;;;5078028;27;91659;-63
2022/07/24 03:43:45;;;;;;;2.00;1.90;;;;;;;;;;5076867;27;92461;-63
2022/07/24 03:46:11;;;;;;;2.10;2.00;;;;;;;;;;5077062;27;93466;-63
2022/07/24 03:48:37;;;;;;;1.90;1.80;;;;;;;;;;5075595;27;94810;-62
2022/07/24 03:51:04;;;;;;;2.30;2.10;;;;;;;;;;5076989;27;96541;-63
2022/07/24 03:53:30;;;;;;;2.35;2.03;;;;;;;;;;5077015;27;94448;-62
2022/07/24 03:55:59;;;;;;;2.30;2.20;;;;;;;;;;5076492;27;92483;-63
2022/07/24 03:58:25;;;;;;;2.13;2.03;;;;;;;;;;5079786;27;93515;-64
2022/07/24 04:00:51;;;;;;;2.17;2.08;;;;;;;;;;5077270;27;92771;-63
2022/07/24 04:03:18;;;;;;;2.42;2.20;;;;;;;;;;5076789;27;94457;-63
2022/07/24 04:05:44;;;;;;;2.30;2.10;;;;;;;;;;5076600;27;92894;-62
2022/07/24 04:08:17;;;;;;;2.15;1.95;;;;;;;;;;5076564;27;92452;-63
2022/07/24 04:10:43;;;;;;;2.53;2.33;;;;;;;;;;5076780;27;92352;-63
2022/07/24 04:13:09;;;;;;;2.20;2.10;;;;;;;;;;5075248;27;96252;-64
2022/07/24 04:15:36;;;;;;;3.40;1.95;;;;;;;;;;5076669;27;92427;-63
2022/07/24 04:18:02;;;;;;;2.25;2.10;;;;;;;;;;5075901;27;93233;-64
2022/07/24 04:20:29;;;;;;;2.20;2.10;;;;;;;;;;5079417;27;93794;-63
2022/07/24 04:22:55;;;;;;;2.30;2.10;;;;;;;;;;5076912;27;94212;-63
2022/07/24 04:25:23;;;;;;;2.30;2.10;;;;;;;;;;5075913;27;93395;-62
2022/07/24 04:27:49;;;;;;;2.30;2.20;;;;;;;;;;5058099;27;92505;-63
2022/07/24 04:30:16;;;;;;;2.60;2.40;;;;;;;;;;5077352;27;94527;-63
2022/07/24 04:32:42;;;;;;;2.28;2.17;;;;;;;;;;5075858;27;93445;-63
2022/07/24 04:35:08;;;;;;;2.03;1.92;;;;;;;;;;5076562;27;92397;-63
2022/07/24 04:37:35;;;;;;;2.28;2.10;;;;;;;;;;5074410;27;94886;-63
2022/07/24 04:40:01;;;;;;;2.15;2.00;;;;;;;;;;5079093;27;93483;-63
2022/07/24 04:42:27;;;;;;;3.75;2.33;;;;;;;;;;5075917;27;93306;-63
2022/07/24 04:44:53;;;;;;;2.58;2.38;;;;;;;;;;5057526;27;92498;-63
2022/07/24 04:47:20;;;;;;;2.58;2.40;;;;;;;;;;5096943;27;92407;-63
2022/07/24 04:49:46;;;;;;;3.40;2.53;;;;;;;;;;5096829;27;94072;-63
2022/07/24 04:52:12;;;;;;;2.75;2.50;;;;;;;;;;5096146;27;94315;-63
2022/07/24 04:54:39;;;;;;;3.50;2.58;;;;;;;;;;5096793;27;91759;-63
2022/07/24 04:57:05;;;;;;;3.05;1.88;;;;;;;;;;5096998;27;93474;-63
2022/07/24 04:59:31;;;;;;;2.92;2.60;;;;;;;;;;5094175;27;93472;-63
2022/07/24 05:01:57;;;;;;;2.60;2.40;;;;;;;;;;5077026;27;94849;-63
2022/07/24 05:04:27;;;;;;;2.63;2.43;;;;;;;;;;5075513;27;93412;-63
2022/07/24 05:06:53;;;;;;;2.67;2.47;;;;;;;;;;5075500;27;92427;-62
2022/07/24 05:09:19;;;;;;;4.13;2.60;;;;;;;;;;5075465;27;93557;-62
2022/07/24 05:11:46;;;;;;;2.63;2.42;;;;;;;;;;5076003;27;94435;-63
2022/07/24 05:14:12;;;;;;;3.38;2.60;;;;;;;;;;5075300;27;92425;-62
2022/07/24 05:16:38;;;;;;;2.83;2.63;;;;;;;;;;5075583;27;93187;-63
2022/07/24 05:19:06;;;;;;;3.65;2.88;;;;;;;;;;5076277;27;93598;-62
2022/07/24 05:21:33;;;;;;;2.80;2.60;;;;;;;;;;5075782;27;92608;-63
2022/07/24 05:24:01;;;;;;;2.92;2.70;;;;;;;;;;5078943;27;94469;-62
2022/07/24 05:26:28;;;;;;;3.00;2.75;;;;;;;;;;5073783;27;94745;-63
2022/07/24 05:28:55;;;;;;;3.20;2.90;;;;;;;;;;5075406;27;95675;-63
2022/07/24 05:31:21;;;;;;;3.10;2.58;;;;;;;;;;5075556;27;94441;-63
2022/07/24 05:33:48;;;;;;;2.85;2.65;;;;;;;;;;5075373;27;92439;-63
2022/07/24 05:36:14;;;;;;;4.32;2.70;;;;;;;;;;5075064;27;93432;-63
2022/07/24 05:38:41;;;;;;;3.28;2.90;;;;;;;;;;5074517;27;93500;-62
2022/07/24 05:41:07;;;;;;;4.45;2.60;;;;;;;;;;5075032;27;92424;-62
2022/07/24 05:43:33;;;;;;;2.85;2.38;;;;;;;;;;5075776;27;95159;-63
2022/07/24 05:46:00;;;;;;;2.85;2.65;;;;;;;;;;5078448;27;93452;-62
2022/07/24 05:48:26;;;;;;;2.58;2.38;;;;;;;;;;5075206;27;93111;-63
2022/07/24 05:50:53;;;;;;;2.70;2.50;;;;;;;;;;5073178;27;95802;-63
2022/07/24 05:53:19;;;;;;;3.20;2.90;;;;;;;;;;5074838;27;92357;-63
2022/07/24 05:55:45;;;;;;;3.55;2.92;;;;;;;;;;5075283;27;93191;-62
2022/07/24 05:58:12;;;;;;;3.08;2.70;;;;;;;;;;5074535;27;93176;-63
2022/07/24 06:00:38;;;;;;;2.92;2.50;;;;;;;;;;5074531;27;92487;-62
2022/07/24 06:03:04;;;;;;;2.60;2.40;;;;;;;;;;5076154;27;93051;-62
2022/07/24 06:05:31;;;;;;;2.90;2.70;;;;;;;;;;5078393;27;93848;-62
2022/07/24 06:07:57;;;;;;;3.20;3.00;;;;;;;;;;5081942;27;91730;-63
2022/07/24 06:10:23;;;;;;;5.03;3.05;;;;;;;;;;5078203;27;94008;-63
2022/07/24 06:12:51;;;;;;;6.55;3.03;;;;;;;;;;5078842;27;92444;-63
2022/07/24 06:15:17;;;;;;;3.33;3.03;;;;;;;;;;5077092;27;94774;-63
2022/07/24 06:17:44;;;;;;;3.30;2.75;;;;;;;;;;5078079;27;93362;-62
2022/07/24 06:20:12;;;;;;;3.53;2.83;;;;;;;;;;5078133;27;92470;-62
2022/07/24 06:22:40;;;;;;;3.47;2.60;;;;;;;;;;5078367;27;93128;-63
2022/07/24 06:25:14;;;;;;;3.47;3.00;;;;;;;;;;5077577;27;93705;-63
2022/07/24 06:27:41;;;;;;;3.45;2.70;;;;;;;;;;5078131;27;92393;-63
2022/07/24 06:30:18;;;;;;;2.85;2.50;;;;;;;;;;5080866;27;93597;-63
2022/07/24 06:32:45;;;;;;;3.55;2.85;;;;;;;;;;5078993;27;91635;-63
2022/07/24 06:35:11;;;;;;;3.85;3.08;;;;;;;;;;5077961;27;92769;-62
2022/07/24 06:37:37;;;;;;;4.25;2.90;;;;;;;;;;5076814;27;94000;-63
2022/07/24 06:40:13;;;;;;;5.40;2.60;;;;;;;;;;5076518;27;94827;-62
2022/07/24 06:42:39;;;;;;;3.83;3.42;;;;;;;;;;5077737;27;95618;-63
2022/07/24 06:45:05;;;;;;;2.90;2.65;;;;;;;;;;5078117;27;93278;-63
2022/07/24 06:47:32;;;;;;;3.85;3.35;;;;;;;;;;5059899;27;92434;-62
2022/07/24 06:49:58;;;;;;;2.80;2.58;;;;;;;;;;5080846;27;93184;-63
2022/07/24 06:52:24;;;;;;;2.45;2.25;;;;;;;;;;5077713;27;92524;-63
2022/07/24 06:54:51;;;;;;;3.42;3.13;;;;;;;;;;5078579;27;94312;-63
2022/07/24 06:57:18;;;;;;;3.67;2.85;;;;;;;;;;5077801;27;92762;-63
2022/07/24 06:59:44;;;;;;;3.13;2.55;;;;;;;;;;5077590;27;92431;-63
2022/07/24 07:02:10;;;;;;;2.80;2.60;;;;;;;;;;5077531;27;93168;-63
2022/07/24 07:04:37;;;;;;;3.47;2.50;;;;;;;;;;5075494;27;96328;-63
2022/07/24 07:07:04;;;;;;;3.40;2.65;;;;;;;;;;5077332;27;92402;-63
2022/07/24 07:09:30;;;;;;;2.78;2.55;;;;;;;;;;5077605;27;93105;-62
2022/07/24 07:11:56;;;;;;;3.80;2.67;;;;;;;;;;5062713;27;94467;-63
2022/07/24 07:14:23;;;;;;;4.43;2.60;;;;;;;;;;5077203;27;93317;-63
2022/07/24 07:16:49;;;;;;;2.95;2.75;;;;;;;;;;5077659;27;93471;-63
2022/07/24 07:19:15;;;;;;;2.72;2.53;;;;;;;;;;5077640;27;92490;-63
2022/07/24 07:21:42;;;;;;;2.80;2.38;;;;;;;;;;5077671;27;92932;-63
2022/07/24 07:24:08;;;;;;;3.40;2.95;;;;;;;;;;5076902;27;93527;-63
2022/07/24 07:26:34;;;;;;;2.75;2.50;;;;;;;;;;5077020;27;92436;-63
2022/07/24 07:29:00;;;;;;;2.45;2.30;;;;;;;;;;5076397;27;94727;-62
2022/07/24 07:31:27;;;;;;;4.18;2.30;;;;;;;;;;5076768;27;93455;-63
2022/07/24 07:33:54;;;;;;;2.72;2.47;;;;;;;;;;5080608;27;92417;-63
2022/07/24 07:36:20;;;;;;;2.58;2.38;;;;;;;;;;5076886;27;93599;-63
2022/07/24 07:38:46;;;;;;;2.60;2.40;;;;;;;;;;5076612;27;92504;-63
2022/07/24 07:41:13;;;;;;;2.55;2.35;;;;;;;;;;5077451;27;94203;-63
2022/07/24 07:43:39;;;;;;;2.53;2.33;;;;;;;;;;5077099;27;94390;-63
2022/07/24 07:46:05;;;;;;;2.95;2.65;;;;;;;;;;5077546;27;91736;-63
2022/07/24 07:48:32;;;;;;;2.30;2.10;;;;;;;;;;5076805;27;92351;-63
2022/07/24 07:50:58;;;;;;;2.58;2.38;;;;;;;;;;5076689;27;93374;-63
2022/07/24 07:53:25;;;;;;;3.65;2.50;;;;;;;;;;5075272;27;94872;-62
2022/07/24 07:55:52;;;;;;;2.88;2.50;;;;;;;;;;5079687;27;95843;-63
2022/07/24 07:58:18;;;;;;;2.35;2.15;;;;;;;;;;5076627;27;92337;-63
2022/07/24 08:00:45;;;;;;;2.38;2.13;;;;;;;;;;5077080;27;94590;-62
2022/07/24 08:03:11;;;;;;;2.92;2.50;;;;;;;;;;5076069;27;93965;-62
2022/07/24 08:05:37;;;;;;;2.20;2.00;;;;;;;;;;5076628;27;92469;-63
2022/07/24 08:08:04;;;;;;;2.17;1.98;;;;;;;;;;5076392;27;93335;-62
2022/07/24 08:10:31;;;;;;;2.65;2.17;;;;;;;;;;5077044;27;92656;-63
2022/07/24 08:12:57;;;;;;;3.42;2.35;;;;;;;;;;5076351;27;92752;-63
2022/07/24 08:15:23;;;;;;;2.03;1.90;;;;;;;;;;5077203;27;94286;-63
2022/07/24 08:17:51;;;;;;;2.28;2.08;;;;;;;;;;5077543;27;95833;-63
2022/07/24 08:20:18;;;;;;;2.10;1.90;;;;;;;;;;5076302;27;96043;-63
2022/07/24 08:22:44;;;;;;;2.65;1.83;;;;;;;;;;5076412;27;93633;-63
2022/07/24 08:25:11;;;;;;;2.33;1.90;;;;;;;;;;5058069;27;92577;-63
2022/07/24 08:27:44;;;;;;;2.00;1.90;;;;;;;;;;5076800;27;94111;-63
2022/07/24 08:30:11;;;;;;;2.38;2.17;;;;;;;;;;5075984;27;93310;-63
2022/07/24 08:32:37;;;;;;;3.00;2.25;;;;;;;;;;5076221;27;92595;-63
2022/07/24 08:35:04;;;;;;;2.05;1.95;;;;;;;;;;5077228;27;93961;-63
2022/07/24 08:37:37;;;;;;;2.10;1.90;;;;;;;;;;5075313;27;93548;-62
2022/07/24 08:40:04;;;;;;;1.90;1.80;;;;;;;;;;5079475;27;92333;-63
2022/07/24 08:42:31;;;;;;;2.15;1.95;;;;;;;;;;5074201;27;96400;-62
2022/07/24 08:44:57;;;;;;;1.75;1.65;;;;;;;;;;5076150;27;92444;-64
2022/07/24 08:47:25;;;;;;;1.83;1.73;;;;;;;;;;5076329;27;94201;-63
2022/07/24 08:49:53;;;;;;;1.92;1.70;;;;;;;;;;5075802;27;93625;-63
2022/07/24 08:52:23;;;;;;;1.98;1.80;;;;;;;;;;5076136;27;92498;-63
2022/07/24 08:54:49;;;;;;;2.03;1.80;;;;;;;;;;5075819;27;93145;-63
2022/07/24 08:57:16;;;;;;;1.63;1.52;;;;;;;;;;5075933;27;94610;-63
2022/07/24 08:59:42;;;;;;;1.90;1.80;;;;;;;;;;5079711;27;91715;-63
2022/07/24 09:02:08;;;;;;;1.83;1.73;;;;;;;;;;5075342;27;93491;-63
2022/07/24 09:04:35;;;;;;;1.90;1.80;;;;;;;;;;5075621;27;92369;-63
2022/07/24 09:07:02;;;;;;;2.03;1.83;;;;;;;;;;5074012;27;94746;-63
2022/07/24 09:09:29;;;;;;;1.90;1.80;;;;;;;;;;5075470;27;94108;-63
2022/07/24 09:12:04;;;;;;;1.88;1.55;;;;;;;;;;5075995;27;92408;-63
2022/07/24 09:14:31;;;;;;;2.55;2.05;;;;;;;;;;5057672;27;93307;-62
2022/07/24 09:17:01;;;;;;;2.50;1.85;;;;;;;;;;5075566;27;93499;-63
2022/07/24 09:19:59;;;;;;;1.90;1.70;;;;;;;;;;5075437;27;92477;-62
2022/07/24 09:22:34;;;;;;;1.63;1.52;;;;;;;;;;5074083;27;92472;-62
2022/07/24 09:25:03;;;;;;;1.63;1.52;;;;;;;;;;5076089;27;91736;-63
2022/07/24 09:27:29;;;;;;;1.87;1.77;;;;;;;;;;5075672;27;93412;-62
2022/07/24 09:29:57;;;;;;;3.53;1.60;;;;;;;;;;5075890;27;94594;-63
2022/07/24 09:32:24;;;;;;;1.83;1.70;;;;;;;;;;5073455;27;94812;-62
2022/07/24 09:34:51;;;;;;;1.80;1.70;;;;;;;;;;5075167;27;95517;-63
2022/07/24 09:37:17;;;;;;;1.90;1.70;;;;;;;;;;5076575;27;93437;-63
2022/07/24 09:39:45;;;;;;;1.88;1.50;;;;;;;;;;5079098;27;92430;-63
2022/07/24 09:42:11;;;;;;;1.40;1.40;;;;;;;;;;5079194;27;93263;-62
2022/07/24 09:44:38;;;;;;;1.63;1.52;;;;;;;;;;5064171;27;94710;-62
2022/07/24 09:47:06;;;;;;;1.70;1.60;;;;;;;;;;5079049;27;92948;-63
2022/07/24 09:49:32;;;;;;;1.88;1.77;;;;;;;;;;5079060;27;91627;-63
2022/07/24 09:52:05;;;;;;;1.77;1.63;;;;;;;;;;5078526;27;92590;-63
2022/07/24 09:54:32;;;;;;;1.58;1.45;;;;;;;;;;5078936;27;92382;-63
2022/07/24 09:57:18;;;;;;;2.10;1.75;;;;;;;;;;5076500;27;95853;-64
2022/07/24 09:59:46;;;;;;;1.80;1.70;;;;;;;;;;5078181;27;92799;-62
2022/07/24 10:02:13;;;;;;;1.60;1.50;;;;;;;;;;5078627;27;93281;-62
2022/07/24 10:04:42;;;;;;;2.47;1.58;;;;;;;;;;5078223;27;93405;-63
2022/07/24 10:07:12;;;;;;;1.73;1.63;;;;;;;;;;5081636;27;92417;-63
2022/07/24 10:09:41;;;;;;;1.75;1.65;;;;;;;;;;5078519;27;93926;-63
2022/07/24 10:12:11;;;;;;;3.30;1.73;;;;;;;;;;5078591;27;92402;-63
2022/07/24 10:14:38;;;;;;;1.40;1.30;;;;;;;;;;5079129;27;93110;-63
2022/07/24 10:17:06;;;;;;;1.60;1.50;;;;;;;;;;5079054;27;94436;-63
2022/07/24 10:19:50;;;;;;;1.65;1.55;;;;;;;;;;5062745;27;92426;-62
2022/07/24 10:22:17;;;;;;;2.63;1.58;;;;;;;;;;5077518;27;95855;-63
2022/07/24 10:24:52;;;;;;;1.92;1.77;;;;;;;;;;5077679;27;92869;-63
2022/07/24 10:27:21;;;;;;;1.70;1.60;;;;;;;;;;5078752;27;92432;-63
2022/07/24 10:29:48;;;;;;;1.40;1.30;;;;;;;;;;5081685;27;94228;-62
2022/07/24 10:32:14;;;;;;;1.58;1.40;;;;;;;;;;5078019;27;92278;-63
2022/07/24 10:34:55;;;;;;;1.85;1.40;;;;;;;;;;5077988;27;93629;-63
2022/07/24 10:37:26;;;;;;;1.48;1.40;;;;;;;;;;5077659;27;93802;-62
2022/07/24 10:39:58;;;;;;;1.58;1.48;;;;;;;;;;5078370;27;91697;-63
2022/07/24 10:42:24;;;;;;;2.20;1.60;;;;;;;;;;5078812;27;92400;-62
2022/07/24 10:45:09;;;;;;;1.70;1.50;;;;;;;;;;5078071;27;93851;-63
2022/07/24 10:47:35;;;;;;;1.60;1.50;;;;;;;;;;5076500;27;94911;-62
2022/07/24 10:50:03;;;;;;;1.52;1.42;;;;;;;;;;5080329;27;95934;-63
2022/07/24 10:52:32;;;;;;;2.10;1.60;;;;;;;;;;5077987;27;93032;-63
2022/07/24 10:55:17;;;;;;;1.55;1.45;;;;;;;;;;5078022;27;93624;-62
2022/07/24 10:57:54;;;;;;;1.55;1.45;;;;;;;;;;5077602;27;93596;-64
2022/07/24 11:00:29;;;;;;;1.50;1.40;;;;;;;;;;5077814;27;92614;-63
2022/07/24 11:02:57;;;;;;;2.47;1.60;;;;;;;;;;5077885;27;94284;-63
2022/07/24 11:05:26;;;;;;;1.80;1.70;;;;;;;;;;5078444;27;93560;-63
2022/07/24 11:08:11;;;;;;;1.60;1.50;;;;;;;;;;5077621;27;92458;-63
2022/07/24 11:10:48;;;;;;;1.90;1.80;;;;;;;;;;5077278;27;93502;-62
2022/07/24 11:13:32;;;;;;;3.67;1.77;;;;;;;;;;5078883;27;95716;-63
2022/07/24 11:16:15;;;;;;;1.50;1.40;;;;;;;;;;5086512;27;96132;-62
2022/07/24 11:18:51;;;;;;;2.28;1.80;;;;;;;;;;5097485;27;93930;-63
2022/07/24 11:21:26;;;;;;;2.33;1.75;;;;;;;;;;5097947;27;92354;-63
2022/07/24 11:24:11;;;;;;;1.60;1.50;;;;;;;;;;5097746;27;93410;-63
2022/07/24 11:26:52;;;;;;;1.77;1.67;;;;;;;;;;5097809;27;93362;-63
2022/07/24 11:29:23;;;;;;;1.63;1.52;;;;;;;;;;5097566;27;92463;-63
2022/07/24 11:31:51;;;;;;;1.30;1.30;;;;;;;;;;5098873;27;94198;-65
2022/07/24 11:34:17;;;;;;;2.00;1.70;;;;;;;;;;5097410;27;93731;-63
2022/07/24 11:36:45;;;;;;;2.05;1.63;;;;;;;;;;5100914;27;92344;-62
2022/07/24 11:39:11;;;;;;;2.00;1.45;;;;;;;;;;5095301;27;95989;-62
2022/07/24 11:41:46;;;;;;;2.55;1.70;;;;;;;;;;5097680;27;92391;-63
2022/07/24 11:44:13;;;;;;;1.80;1.70;;;;;;;;;;5097526;27;93571;-63
2022/07/24 11:46:40;;;;;;;1.80;1.67;;;;;;;;;;5097018;27;93468;-63
2022/07/24 11:49:08;;;;;;;2.10;2.00;;;;;;;;;;5097917;27;92516;-63
2022/07/24 11:51:44;;;;;;;1.67;1.58;;;;;;;;;;5097663;27;93036;-63
2022/07/24 11:54:12;;;;;;;2.13;1.80;;;;;;;;;;5097750;27;94409;-63
2022/07/24 11:56:38;;;;;;;2.13;1.80;;;;;;;;;;5097874;27;91673;-63
2022/07/24 11:59:04;;;;;;;1.58;1.48;;;;;;;;;;5100615;27;93816;-62
2022/07/24 12:01:31;;;;;;;1.90;1.80;;;;;;;;;;5077467;27;92438;-63
2022/07/24 12:03:58;;;;;;;2.03;1.70;;;;;;;;;;5074360;27;94798;-62
2022/07/24 12:06:25;;;;;;;1.90;1.80;;;;;;;;;;5076514;27;93519;-63
2022/07/24 12:09:06;;;;;;;1.92;1.75;;;;;;;;;;5076424;27;92436;-62
2022/07/24 12:11:33;;;;;;;2.13;1.75;;;;;;;;;;5058583;27;93589;-63
2022/07/24 12:13:59;;;;;;;1.58;1.48;;;;;;;;;;5076271;27;93664;-63
2022/07/24 12:16:28;;;;;;;1.83;1.73;;;;;;;;;;5076773;27;92525;-63
2022/07/24 12:19:14;;;;;;;1.70;1.55;;;;;;;;;;5076522;27;93034;-63
2022/07/24 12:21:41;;;;;;;2.38;1.83;;;;;;;;;;5079883;27;92446;-63
2022/07/24 12:24:07;;;;;;;1.75;1.65;;;;;;;;;;5076206;27;92474;-63
2022/07/24 12:26:34;;;;;;;1.73;1.52;;;;;;;;;;5076429;27;94536;-63
2022/07/24 12:29:09;;;;;;;1.52;1.42;;;;;;;;;;5074496;27;94894;-63
2022/07/24 12:31:36;;;;;;;1.67;1.58;;;;;;;;;;5076710;27;96639;-62
2022/07/24 12:34:03;;;;;;;1.98;1.58;;;;;;;;;;5075764;27;93349;-64
2022/07/24 12:36:31;;;;;;;1.58;1.48;;;;;;;;;;5076357;27;92416;-63
2022/07/24 12:38:58;;;;;;;2.08;1.95;;;;;;;;;;5075627;27;93113;-63
2022/07/24 12:41:25;;;;;;;1.88;1.77;;;;;;;;;;5075869;27;93554;-63
2022/07/24 12:43:53;;;;;;;2.08;1.55;;;;;;;;;;5079753;27;92393;-63
2022/07/24 12:46:21;;;;;;;1.55;1.45;;;;;;;;;;5077080;27;93752;-63
2022/07/24 12:49:07;;;;;;;2.05;1.60;;;;;;;;;;5075870;27;92524;-62
2022/07/24 12:51:46;;;;;;;1.42;1.33;;;;;;;;;;5076009;27;93133;-64
2022/07/24 12:54:31;;;;;;;1.73;1.60;;;;;;;;;;5073852;27;95878;-63
2022/07/24 12:56:59;;;;;;;2.08;1.65;;;;;;;;;;5075769;27;92399;-63
2022/07/24 12:59:27;;;;;;;1.75;1.65;;;;;;;;;;5075454;27;93585;-63
2022/07/24 13:01:54;;;;;;;2.78;1.98;;;;;;;;;;5075975;27;94425;-63
2022/07/24 13:04:22;;;;;;;1.38;1.30;;;;;;;;;;5079155;27;92405;-63
2022/07/24 13:06:50;;;;;;;2.13;1.92;;;;;;;;;;5075689;27;92825;-62
2022/07/24 13:09:17;;;;;;;1.52;1.42;;;;;;;;;;5075535;27;92386;-64
2022/07/24 13:11:44;;;;;;;1.70;1.60;;;;;;;;;;5076486;27;93839;-63
2022/07/24 13:14:11;;;;;;;1.38;1.27;;;;;;;;;;5075234;27;93492;-64
2022/07/24 13:16:39;;;;;;;1.70;1.50;;;;;;;;;;5076436;27;92405;-63
2022/07/24 13:19:06;;;;;;;2.15;1.80;;;;;;;;;;5074116;27;94751;-62
2022/07/24 13:21:33;;;;;;;1.92;1.83;;;;;;;;;;5075633;27;94504;-62
2022/07/24 13:24:00;;;;;;;1.70;1.60;;;;;;;;;;5074997;27;92445;-63
2022/07/24 13:26:26;;;;;;;1.70;1.60;;;;;;;;;;5078483;27;92462;-63
2022/07/24 13:28:53;;;;;;;1.52;1.42;;;;;;;;;;5075354;27;92361;-62
2022/07/24 13:31:19;;;;;;;1.77;1.67;;;;;;;;;;5075338;27;93526;-63
2022/07/24 13:33:47;;;;;;;1.88;1.77;;;;;;;;;;5075095;27;93446;-62
2022/07/24 13:36:17;;;;;;;1.65;1.55;;;;;;;;;;5075684;27;91614;-63
2022/07/24 13:38:45;;;;;;;1.60;1.50;;;;;;;;;;5074936;27;92474;-63
2022/07/24 13:41:12;;;;;;;1.80;1.70;;;;;;;;;;5074916;27;93475;-63
2022/07/24 13:43:38;;;;;;;1.48;1.38;;;;;;;;;;5073705;27;94817;-63
2022/07/24 13:46:05;;;;;;;1.90;1.60;;;;;;;;;;5057548;27;95999;-63
2022/07/24 13:48:31;;;;;;;1.73;1.60;;;;;;;;;;5078294;27;93468;-62
2022/07/24 13:50:58;;;;;;;1.60;1.50;;;;;;;;;;5074907;27;92946;-63
2022/07/24 13:53:24;;;;;;;1.60;1.50;;;;;;;;;;5075378;27;94660;-63
2022/07/24 13:55:50;;;;;;;1.55;1.30;;;;;;;;;;5075105;27;92475;-63
2022/07/24 13:58:16;;;;;;;1.58;1.48;;;;;;;;;;5074938;27;93181;-63
2022/07/24 14:00:43;;;;;;;1.85;1.65;;;;;;;;;;5075062;27;92726;-63
2022/07/24 14:03:09;;;;;;;1.50;1.40;;;;;;;;;;5074549;27;92421;-63
2022/07/24 14:05:56;;;;;;;1.77;1.67;;;;;;;;;;5075231;27;93137;-62
2022/07/24 14:08:23;;;;;;;1.80;1.60;;;;;;;;;;5073218;27;95831;-63
2022/07/24 14:10:50;;;;;;;1.60;1.50;;;;;;;;;;5078146;27;92439;-63
2022/07/24 14:13:16;;;;;;;1.65;1.55;;;;;;;;;;5074683;27;93434;-63
2022/07/24 14:15:42;;;;;;;1.73;1.63;;;;;;;;;;5075482;27;92443;-62
2022/07/24 14:18:09;;;;;;;1.83;1.73;;;;;;;;;;5056452;27;93639;-63
2022/07/24 14:20:35;;;;;;;1.58;1.48;;;;;;;;;;5074566;27;93625;-63
2022/07/24 14:23:01;;;;;;;2.13;1.80;;;;;;;;;;5074766;27;92682;-63
2022/07/24 14:25:31;;;;;;;1.67;1.58;;;;;;;;;;5079101;27;94302;-63
2022/07/24 14:27:57;;;;;;;1.60;1.50;;;;;;;;;;5078305;27;93509;-63
2022/07/24 14:30:23;;;;;;;1.52;1.42;;;;;;;;;;5078012;27;92461;-63
2022/07/24 14:32:50;;;;;;;2.88;1.50;;;;;;;;;;5079328;27;94775;-63
2022/07/24 14:35:16;;;;;;;2.25;1.80;;;;;;;;;;5078270;27;92518;-63
2022/07/24 14:37:42;;;;;;;2.25;1.40;;;;;;;;;;5077668;27;93225;-63
2022/07/24 14:40:09;;;;;;;1.63;1.52;;;;;;;;;;5077793;27;93265;-63
2022/07/24 14:42:35;;;;;;;1.48;1.38;;;;;;;;;;5078330;27;92433;-63
2022/07/24 14:45:02;;;;;;;1.60;1.50;;;;;;;;;;5078920;27;94317;-63
2022/07/24 14:47:29;;;;;;;1.58;1.48;;;;;;;;;;5077454;27;93626;-63